Time;durP1;ratioP1;P1;durP2;ratioP2;P2;SDS_P1;SDS_P2;PMS_P1;PMS_P2;Temp;Humidity;BMP_temperature;BMP_pressure;BME280_temperature;BME280_humidity;BME280_pressure;Samples;Min_cycle;Max_cycle;Signal;HPM_P1;HPM_P2
2024/02/04 00:01:00;;;;;;;5.80;4.90;;;;;;;9.86;89.10;101179.31;5036394;28;20239;-78
2024/02/04 00:03:27;;;;;;;5.80;5.30;;;;;;;9.79;89.47;101162.00;5035982;28;20697;-78
2024/02/04 00:05:53;;;;;;;5.50;5.00;;;;;;;9.86;88.77;101155.00;5036645;28;20225;-77
2024/02/04 00:08:19;;;;;;;5.80;4.60;;;;;;;9.86;88.37;101163.69;5026738;28;20199;-78
2024/02/04 00:10:45;;;;;;;4.60;4.20;;;;;;;9.79;87.94;101169.81;5036555;28;20202;-78
2024/02/04 00:13:12;;;;;;;5.77;4.13;;;;;;;9.86;87.20;101189.75;5036826;28;20199;-78
2024/02/04 00:15:38;;;;;;;4.60;4.20;;;;;;;9.76;86.40;101211.53;5030573;28;20607;-78
2024/02/04 00:18:06;;;;;;;4.70;3.70;;;;;;;9.88;86.73;101219.31;5016394;28;20203;-78
2024/02/04 00:20:33;;;;;;;3.90;3.50;;;;;;;9.90;86.45;101217.56;5027453;28;20260;-78
2024/02/04 00:22:59;;;;;;;4.93;4.23;;;;;;;9.70;87.05;101214.16;5036499;28;20244;-78
2024/02/04 00:25:26;;;;;;;4.90;3.87;;;;;;;9.61;86.68;101217.63;5035040;28;20207;-78
2024/02/04 00:27:52;;;;;;;5.13;4.50;;;;;;;9.63;87.03;101226.34;5035044;28;20210;-78
2024/02/04 00:30:18;;;;;;;7.20;4.33;;;;;;;9.41;89.17;101199.44;5035368;28;20202;-78
2024/02/04 00:32:45;;;;;;;5.70;5.20;;;;;;;9.53;89.60;101157.75;5035986;28;20198;-78
2024/02/04 00:35:12;;;;;;;5.63;5.00;;;;;;;9.40;90.43;101129.97;5035142;28;20680;-78
2024/02/04 00:37:39;;;;;;;5.10;4.60;;;;;;;9.73;89.93;101118.56;5035457;28;20254;-78
2024/02/04 00:40:06;;;;;;;6.43;5.93;;;;;;;9.24;91.81;101097.88;5034937;28;20206;-77
2024/02/04 00:42:33;;;;;;;5.87;5.27;;;;;;;9.27;93.40;101055.31;5034316;28;20221;-78
2024/02/04 00:44:59;;;;;;;6.20;5.57;;;;;;;9.33;93.15;101032.72;5034574;28;20198;-77
2024/02/04 00:47:25;;;;;;;5.30;4.80;;;;;;;9.50;91.49;101035.25;5035977;28;20639;-78
2024/02/04 00:49:52;;;;;;;5.47;4.47;;;;;;;9.25;91.63;101044.03;5034708;28;20198;-78
2024/02/04 00:52:19;;;;;;;4.87;4.37;;;;;;;9.14;90.48;101055.38;5043057;28;20193;-77
2024/02/04 00:54:46;;;;;;;5.10;4.40;;;;;;;9.24;89.75;101061.41;5015573;28;20680;-77
2024/02/04 00:57:12;;;;;;;5.03;4.63;;;;;;;9.41;89.45;101073.50;5023501;28;20379;-78
2024/02/04 00:59:38;;;;;;;5.93;4.77;;;;;;;9.21;89.85;101082.25;5034274;28;20198;-77
2024/02/04 01:02:05;;;;;;;4.87;4.27;;;;;;;9.43;89.59;101074.38;5034801;28;20672;-78
2024/02/04 01:04:31;;;;;;;5.50;5.00;;;;;;;9.30;89.40;101079.63;5033945;28;20211;-78
2024/02/04 01:06:57;;;;;;;5.50;5.00;;;;;;;9.49;89.92;101069.13;5034867;28;20246;-78
2024/02/04 01:09:25;;;;;;;5.77;5.10;;;;;;;9.53;90.71;101048.28;5025359;28;20640;-78
2024/02/04 01:11:53;;;;;;;6.90;6.30;;;;;;;9.41;91.60;101043.09;5015779;28;20264;-78
2024/02/04 01:14:19;;;;;;;7.07;6.37;;;;;;;9.45;92.40;101025.72;5015592;28;20245;-78
2024/02/04 01:16:45;;;;;;;7.53;6.80;;;;;;;9.32;93.02;101006.69;5015214;28;20227;-77
2024/02/04 01:19:12;;;;;;;8.90;7.33;;;;;;;9.40;93.25;100994.47;5013380;28;20657;-78
2024/02/04 01:21:38;;;;;;;7.63;6.87;;;;;;;9.32;nan;100994.50;5027226;28;20229;-78
2024/02/04 01:24:05;;;;;;;9.10;6.90;;;;;;;9.32;93.06;100988.44;5035177;28;20226;-78
2024/02/04 01:26:32;;;;;;;7.80;7.00;;;;;;;9.45;93.19;100994.44;5033888;28;20254;-78
2024/02/04 01:28:59;;;;;;;6.80;6.30;;;;;;;9.33;93.24;100980.59;5034791;28;20202;-78
2024/02/04 01:31:25;;;;;;;7.80;7.07;;;;;;;9.64;91.89;100996.06;5035269;28;20238;-78
2024/02/04 01:33:51;;;;;;;7.17;6.50;;;;;;;9.40;92.70;101010.13;5033805;28;20198;-78
2024/02/04 01:36:18;;;;;;;7.13;6.43;;;;;;;9.56;91.85;101023.94;5034911;28;20272;-78
2024/02/04 01:38:44;;;;;;;8.10;7.40;;;;;;;9.47;91.98;101024.81;5034329;28;20210;-78
2024/02/04 01:41:10;;;;;;;10.37;7.87;;;;;;;9.27;93.29;101011.03;5034117;28;20206;-78
2024/02/04 01:43:38;;;;;;;9.67;7.80;;;;;;;9.35;93.57;100996.22;5034325;28;20253;-78
2024/02/04 01:46:05;;;;;;;8.70;7.87;;;;;;;9.32;94.18;100994.50;5042928;28;20297;-77
2024/02/04 01:48:31;;;;;;;9.80;7.67;;;;;;;9.44;93.81;100993.59;5031160;28;20632;-78
2024/02/04 01:50:59;;;;;;;8.83;8.07;;;;;;;9.56;93.15;100987.44;5013609;28;20207;-78
2024/02/04 01:53:27;;;;;;;8.17;7.30;;;;;;;9.39;93.04;100991.88;5015014;28;20629;-78
2024/02/04 01:55:54;;;;;;;9.13;8.33;;;;;;;9.55;93.26;100985.69;5014494;28;20278;-78
2024/02/04 01:58:21;;;;;;;9.80;8.83;;;;;;;9.60;93.81;100967.44;5014664;28;20612;-78
2024/02/04 02:00:50;;;;;;;10.27;9.17;;;;;;;9.63;94.21;100972.63;5027424;28;20199;-79
2024/02/04 02:03:16;;;;;;;10.13;9.27;;;;;;;9.59;93.59;100987.41;5034320;28;20230;-78
2024/02/04 02:05:43;;;;;;;10.70;9.67;;;;;;;9.59;94.17;100968.31;5033044;28;20222;-78
2024/02/04 02:08:11;;;;;;;12.00;10.93;;;;;;;9.60;94.60;100952.66;5033232;28;20202;-78
2024/02/04 02:10:39;;;;;;;10.70;9.70;;;;;;;9.56;95.24;100931.84;5033625;28;20202;-78
2024/02/04 02:13:10;;;;;;;11.97;10.73;;;;;;;9.59;95.91;100924.00;5040596;28;20201;-78
2024/02/04 02:15:43;;;;;;;11.40;10.40;;;;;;;9.62;96.06;100917.03;5015389;28;20238;-78
2024/02/04 02:18:15;;;;;;;11.23;10.07;;;;;;;9.53;96.77;100898.84;5014533;28;20752;-78
2024/02/04 02:20:56;;;;;;;11.73;10.63;;;;;;;9.55;96.94;100891.88;5033787;28;20260;-78
2024/02/04 02:23:27;;;;;;;12.27;11.07;;;;;;;9.47;97.41;100881.50;5034909;28;20265;-78
2024/02/04 02:25:56;;;;;;;11.73;10.63;;;;;;;9.54;97.62;100864.97;5034105;28;20734;-78
2024/02/04 02:28:23;;;;;;;12.93;10.53;;;;;;;9.61;97.13;100854.47;5034044;28;20252;-78
2024/02/04 02:30:49;;;;;;;10.93;10.03;;;;;;;9.73;96.17;100860.47;5034069;28;20198;-79
2024/02/04 02:33:16;;;;;;;12.10;10.90;;;;;;;9.48;97.05;100865.00;5032681;28;20198;-77
2024/02/04 02:35:44;;;;;;;11.00;9.93;;;;;;;9.59;97.26;100859.69;5033003;28;20226;-78
2024/02/04 02:38:21;;;;;;;10.93;9.83;;;;;;;9.57;96.55;100852.78;5033558;28;20252;-78
2024/02/04 02:40:54;;;;;;;10.50;9.60;;;;;;;9.64;96.19;100857.06;5026671;28;20320;-78
2024/02/04 02:43:24;;;;;;;9.63;8.67;;;;;;;9.75;95.49;100870.84;5032235;28;20257;-78
2024/02/04 02:45:51;;;;;;;9.30;8.40;;;;;;;9.71;95.22;100882.19;5034140;28;20222;-78
2024/02/04 02:48:18;;;;;;;9.53;8.53;;;;;;;9.73;94.36;100901.28;5034093;28;20202;-78
2024/02/04 02:50:44;;;;;;;9.27;8.47;;;;;;;9.70;95.13;100888.31;5024571;28;20688;-78
2024/02/04 02:53:10;;;;;;;8.43;7.73;;;;;;;9.59;94.59;100904.00;5033728;28;20195;-77
2024/02/04 02:55:37;;;;;;;8.80;8.00;;;;;;;9.69;95.02;100889.16;5032641;28;20226;-79
2024/02/04 02:58:03;;;;;;;8.10;7.50;;;;;;;9.57;94.49;100904.91;5032907;28;20206;-78
2024/02/04 03:00:31;;;;;;;7.53;6.93;;;;;;;9.79;94.15;100901.28;5033441;28;20218;-78
2024/02/04 03:02:57;;;;;;;8.67;7.83;;;;;;;9.66;94.12;100915.28;5031849;28;20202;-78
2024/02/04 03:05:23;;;;;;;7.23;6.53;;;;;;;9.74;94.32;100910.84;5032344;28;20213;-78
2024/02/04 03:07:50;;;;;;;8.27;7.07;;;;;;;9.95;92.91;100912.44;5036466;28;20213;-79
2024/02/04 03:10:16;;;;;;;7.30;6.60;;;;;;;9.67;94.10;100919.59;5037178;28;20590;-78
2024/02/04 03:12:42;;;;;;;8.17;7.20;;;;;;;9.71;94.11;100911.75;5044632;28;20201;-77
2024/02/04 03:15:09;;;;;;;11.13;8.23;;;;;;;9.47;95.49;100897.13;5031867;28;20264;-77
2024/02/04 03:17:37;;;;;;;8.40;7.60;;;;;;;9.49;95.99;100869.34;5023579;28;20837;-77
2024/02/04 03:20:04;;;;;;;8.23;7.43;;;;;;;9.69;96.03;100858.78;5044114;28;20232;-78
2024/02/04 03:22:30;;;;;;;8.60;7.83;;;;;;;9.70;95.65;100862.22;5041504;28;20210;-78
2024/02/04 03:24:57;;;;;;;9.83;8.87;;;;;;;9.62;95.69;100864.91;5041392;28;20229;-77
2024/02/04 03:27:23;;;;;;;9.40;8.57;;;;;;;9.80;96.37;100850.84;5047756;28;20237;-78
2024/02/04 03:29:49;;;;;;;10.63;9.63;;;;;;;9.73;95.95;100855.25;5014305;28;20206;-78
2024/02/04 03:32:16;;;;;;;10.60;9.50;;;;;;;9.48;97.72;100832.88;5015306;28;20206;-77
2024/02/04 03:34:44;;;;;;;12.07;10.37;;;;;;;9.71;97.98;100819.63;5012493;28;20225;-78
2024/02/04 03:37:10;;;;;;;10.80;9.40;;;;;;;9.91;97.17;100827.25;5028405;28;20230;-78
2024/02/04 03:39:37;;;;;;;10.60;9.60;;;;;;;9.73;97.73;100817.88;5033322;28;20210;-78
2024/02/04 03:42:04;;;;;;;11.93;10.83;;;;;;;9.63;98.31;100813.63;5033137;28;20237;-78
2024/02/04 03:44:30;;;;;;;11.40;10.33;;;;;;;9.72;98.88;100782.28;5033230;28;20230;-78
2024/02/04 03:46:56;;;;;;;10.50;9.50;;;;;;;9.78;98.68;100782.22;5033388;28;20222;-79
2024/02/04 03:49:22;;;;;;;10.20;9.20;;;;;;;9.71;97.72;100798.78;5033373;28;20256;-78
2024/02/04 03:51:50;;;;;;;10.63;9.53;;;;;;;9.75;98.25;100800.47;5024968;28;20238;-77
2024/02/04 03:54:18;;;;;;;10.90;10.00;;;;;;;9.80;98.37;100805.66;5033519;28;20222;-78
2024/02/04 03:56:45;;;;;;;8.77;8.03;;;;;;;9.92;97.83;100810.75;5036862;28;20234;-78
2024/02/04 03:59:11;;;;;;;9.90;8.90;;;;;;;9.87;98.26;100800.38;5012004;28;20294;-78
2024/02/04 04:01:38;;;;;;;9.20;8.43;;;;;;;9.63;98.11;100811.91;5013973;28;20625;-77
2024/02/04 04:04:04;;;;;;;8.40;7.80;;;;;;;9.69;98.83;100801.44;5015380;28;20597;-77
2024/02/04 04:06:31;;;;;;;8.73;7.93;;;;;;;9.63;98.15;100784.97;5021367;28;20260;-78
2024/02/04 04:08:59;;;;;;;8.53;7.73;;;;;;;9.93;97.07;100795.09;5035568;28;20206;-78
2024/02/04 04:11:25;;;;;;;8.43;7.63;;;;;;;9.97;97.02;100800.25;5036030;28;20238;-78
2024/02/04 04:13:51;;;;;;;8.93;8.23;;;;;;;9.68;97.04;100806.66;5035802;28;20226;-77
2024/02/04 04:16:21;;;;;;;10.37;7.90;;;;;;;9.94;96.45;100820.28;5036163;28;20700;-77
2024/02/04 04:18:47;;;;;;;9.00;8.20;;;;;;;9.93;95.87;100817.72;5039968;28;20256;-78
2024/02/04 04:21:14;;;;;;;7.73;7.03;;;;;;;9.74;95.35;100827.44;5015772;28;20261;-78
2024/02/04 04:23:40;;;;;;;7.73;7.03;;;;;;;9.64;95.23;100831.00;5015089;28;20227;-78
2024/02/04 04:26:08;;;;;;;8.70;7.90;;;;;;;9.62;94.79;100841.44;5021066;28;20226;-77
2024/02/04 04:28:34;;;;;;;7.23;6.63;;;;;;;9.66;95.09;100839.69;5039564;28;20217;-78
2024/02/04 04:31:00;;;;;;;7.27;6.53;;;;;;;9.92;94.60;100847.25;5042662;28;20201;-78
2024/02/04 04:33:27;;;;;;;6.93;6.33;;;;;;;9.86;94.07;100871.63;5038933;28;20206;-78
2024/02/04 04:35:53;;;;;;;6.70;6.10;;;;;;;9.93;94.15;100868.09;5038000;28;20289;-78
2024/02/04 04:38:19;;;;;;;6.70;6.10;;;;;;;9.74;94.63;100862.19;5031091;28;20783;-78
2024/02/04 04:40:46;;;;;;;6.13;5.63;;;;;;;9.88;95.31;100854.25;5035343;28;20233;-78
2024/02/04 04:43:14;;;;;;;6.23;5.73;;;;;;;9.80;96.33;100826.53;5035077;28;20198;-78
2024/02/04 04:45:41;;;;;;;7.20;6.60;;;;;;;9.61;96.59;100829.28;5035179;28;20229;-77
2024/02/04 04:48:08;;;;;;;8.00;7.30;;;;;;;9.93;96.10;100829.00;5035058;28;20237;-78
2024/02/04 04:50:35;;;;;;;7.93;7.40;;;;;;;9.80;96.17;100816.09;5034103;28;20727;-78
2024/02/04 04:53:01;;;;;;;6.87;6.30;;;;;;;9.91;94.71;100829.88;5035054;28;20198;-78
2024/02/04 04:55:28;;;;;;;7.07;6.57;;;;;;;9.94;93.60;100850.72;5036005;28;20631;-78
2024/02/04 04:57:54;;;;;;;6.03;5.63;;;;;;;9.81;92.75;100886.47;5026591;28;20618;-78
2024/02/04 05:00:22;;;;;;;6.40;6.00;;;;;;;9.81;92.06;100917.75;5034934;28;20256;-77
2024/02/04 05:02:48;;;;;;;6.17;5.77;;;;;;;9.78;92.19;100927.34;5034543;28;20236;-78
2024/02/04 05:05:15;;;;;;;5.33;4.93;;;;;;;9.80;91.44;100928.19;5034377;28;20254;-79
2024/02/04 05:07:41;;;;;;;5.63;5.20;;;;;;;9.73;90.60;100930.84;5035475;28;20202;-78
2024/02/04 05:10:08;;;;;;;4.80;4.43;;;;;;;9.92;89.66;100975.03;5021872;28;20202;-78
2024/02/04 05:12:36;;;;;;;4.67;4.27;;;;;;;9.73;89.42;100975.19;5013933;28;20206;-77
2024/02/04 05:15:03;;;;;;;4.97;3.80;;;;;;;9.58;88.35;101003.06;5015641;28;20269;-78
2024/02/04 05:17:31;;;;;;;3.90;3.60;;;;;;;9.41;87.66;101024.00;5015240;28;20227;-76
2024/02/04 05:19:58;;;;;;;3.93;3.63;;;;;;;9.73;86.30;101040.34;5026993;28;20202;-78
2024/02/04 05:22:24;;;;;;;3.07;2.83;;;;;;;9.46;84.94;101087.41;5035250;28;20206;-78
2024/02/04 05:24:50;;;;;;;3.87;3.20;;;;;;;9.76;84.38;101111.59;5034845;28;20276;-77
2024/02/04 05:27:17;;;;;;;4.47;2.97;;;;;;;9.46;85.23;101121.28;5033984;28;20226;-77
2024/02/04 05:29:43;;;;;;;4.70;3.50;;;;;;;9.65;85.04;101138.59;5034661;28;20229;-76
2024/02/04 05:32:09;;;;;;;3.60;3.07;;;;;;;9.82;85.41;101125.47;5034563;28;20289;-78
2024/02/04 05:34:37;;;;;;;3.77;3.37;;;;;;;9.68;86.09;101112.47;5034398;28;20214;-78
2024/02/04 05:37:04;;;;;;;3.50;3.20;;;;;;;9.51;87.65;101083.00;5032202;28;20248;-78
2024/02/04 05:39:30;;;;;;;3.53;3.23;;;;;;;9.57;87.64;101050.84;5034521;28;20206;-77
2024/02/04 05:41:56;;;;;;;3.83;2.70;;;;;;;9.48;87.15;101057.00;5026266;28;20210;-76
2024/02/04 05:44:23;;;;;;;3.67;3.37;;;;;;;9.78;86.14;101055.97;5033737;28;20266;-78
2024/02/04 05:46:49;;;;;;;3.17;2.97;;;;;;;9.82;86.53;101057.66;5034782;28;20226;-78
2024/02/04 05:49:16;;;;;;;3.17;2.87;;;;;;;9.76;86.15;101080.31;5033910;28;20222;-78
2024/02/04 05:51:47;;;;;;;3.10;2.83;;;;;;;9.80;87.04;101040.31;5033747;28;20285;-78
2024/02/04 05:54:13;;;;;;;3.00;2.80;;;;;;;9.92;87.05;101040.22;5036720;28;20199;-78
2024/02/04 05:56:40;;;;;;;3.90;3.60;;;;;;;9.66;87.94;101028.22;5014970;28;20223;-77
2024/02/04 05:59:06;;;;;;;3.83;3.53;;;;;;;9.76;88.63;101010.78;5013764;28;20234;-78
2024/02/04 06:01:32;;;;;;;3.80;3.50;;;;;;;9.92;87.59;101001.09;5021396;28;20710;-78
2024/02/04 06:03:59;;;;;;;4.00;3.63;;;;;;;9.72;88.47;100991.69;5025212;28;20779;-77
2024/02/04 06:06:25;;;;;;;3.50;2.83;;;;;;;9.69;86.39;101007.34;5033971;28;20229;-77
2024/02/04 06:08:52;;;;;;;2.90;2.33;;;;;;;9.79;84.67;101049.88;5033493;28;20707;-77
2024/02/04 06:11:18;;;;;;;3.40;2.90;;;;;;;9.77;83.53;101085.50;5033382;28;20199;-77
2024/02/04 06:13:45;;;;;;;3.30;1.93;;;;;;;9.87;82.55;101087.19;5033620;28;20268;-77
2024/02/04 06:16:12;;;;;;;2.63;2.37;;;;;;;9.72;83.02;101115.94;5033965;28;20226;-77
2024/02/04 06:18:39;;;;;;;3.63;2.10;;;;;;;9.85;82.32;101146.31;5033259;28;20725;-77
2024/02/04 06:21:06;;;;;;;2.43;2.03;;;;;;;9.99;82.84;101135.81;5033550;28;20639;-78
2024/02/04 06:23:32;;;;;;;2.23;1.93;;;;;;;9.94;83.15;101124.53;5034209;28;20249;-78
2024/02/04 06:26:00;;;;;;;2.07;1.90;;;;;;;9.96;83.00;101133.22;5034293;28;20343;-78
2024/02/04 06:28:27;;;;;;;2.27;1.70;;;;;;;10.04;83.51;101114.91;5033443;28;20661;-78
2024/02/04 06:30:54;;;;;;;3.00;2.27;;;;;;;9.81;84.64;101096.78;5032684;28;20256;-78
2024/02/04 06:33:20;;;;;;;2.57;1.97;;;;;;;9.84;84.70;101071.56;5033042;28;20198;-78
2024/02/04 06:35:47;;;;;;;3.17;2.00;;;;;;;9.97;84.57;101076.69;5034282;28;20230;-78
2024/02/04 06:38:13;;;;;;;2.17;1.87;;;;;;;10.04;83.84;101073.19;5034085;28;20210;-78
2024/02/04 06:40:39;;;;;;;2.00;1.77;;;;;;;10.17;83.47;101072.22;5034511;28;20217;-78
2024/02/04 06:43:07;;;;;;;1.83;1.73;;;;;;;9.78;83.73;101100.28;5033677;28;20632;-77
2024/02/04 06:45:33;;;;;;;2.70;1.80;;;;;;;9.96;84.28;101056.72;5033906;28;20265;-78
2024/02/04 06:48:00;;;;;;;2.40;2.00;;;;;;;9.97;84.03;101050.63;5033175;28;20256;-78
2024/02/04 06:50:26;;;;;;;2.53;2.00;;;;;;;9.77;83.35;101056.81;5021263;28;20243;-78
2024/02/04 06:52:52;;;;;;;1.67;1.57;;;;;;;10.05;83.20;101074.91;5031702;28;20202;-78
2024/02/04 06:55:19;;;;;;;2.07;1.93;;;;;;;10.19;82.83;101088.75;5034084;28;20202;-78
2024/02/04 06:57:45;;;;;;;2.30;2.10;;;;;;;9.69;84.09;101079.47;5032888;28;20245;-78
2024/02/04 07:00:15;;;;;;;3.37;2.50;;;;;;;9.90;84.20;101058.47;5033964;28;20597;-77
2024/02/04 07:02:42;;;;;;;4.13;2.00;;;;;;;9.88;83.72;101062.84;5032587;28;20233;-78
2024/02/04 07:05:10;;;;;;;4.77;2.00;;;;;;;9.82;82.72;101082.88;5032524;28;20669;-78
2024/02/04 07:07:36;;;;;;;1.77;1.33;;;;;;;9.73;82.53;101075.97;5033511;28;20210;-76
2024/02/04 07:10:03;;;;;;;2.33;1.77;;;;;;;9.49;83.13;101067.41;5032536;28;20260;-77
2024/02/04 07:12:29;;;;;;;2.70;2.03;;;;;;;9.52;83.05;101089.97;5033254;28;20233;-78
2024/02/04 07:14:55;;;;;;;1.70;1.40;;;;;;;9.66;82.98;101058.63;5039789;28;20213;-78
2024/02/04 07:17:23;;;;;;;2.33;1.63;;;;;;;9.67;81.37;101082.09;5013709;28;20227;-77
2024/02/04 07:19:49;;;;;;;1.90;1.50;;;;;;;9.61;81.29;101110.78;5030235;28;20627;-77
2024/02/04 07:22:16;;;;;;;2.10;1.07;;;;;;;9.72;81.31;101093.34;5033853;28;20202;-78
2024/02/04 07:24:43;;;;;;;1.57;1.10;;;;;;;9.71;80.61;101111.59;5033261;28;20226;-78
2024/02/04 07:27:09;;;;;;;2.20;1.40;;;;;;;9.80;80.49;101105.50;5032975;28;20228;-77
2024/02/04 07:29:35;;;;;;;1.37;1.03;;;;;;;9.58;81.05;101117.75;5033129;28;20225;-77
2024/02/04 07:32:02;;;;;;;2.93;1.60;;;;;;;9.72;81.96;101113.34;5032840;28;20287;-77
2024/02/04 07:34:29;;;;;;;1.87;1.50;;;;;;;9.71;81.91;101112.50;5033447;28;20632;-78
2024/02/04 07:36:56;;;;;;;1.93;1.70;;;;;;;9.83;82.05;101095.91;5037683;28;20234;-78
2024/02/04 07:39:22;;;;;;;1.93;1.40;;;;;;;9.79;81.90;101094.22;5038256;28;20206;-79
2024/02/04 07:41:49;;;;;;;1.90;1.50;;;;;;;9.63;81.64;101095.13;5038450;28;20734;-79
2024/02/04 07:44:15;;;;;;;1.50;1.40;;;;;;;9.62;81.85;101096.88;5038754;28;20225;-79
2024/02/04 07:46:41;;;;;;;2.60;1.50;;;;;;;9.67;82.01;101096.84;5038680;28;20233;-79
2024/02/04 07:49:08;;;;;;;2.23;1.47;;;;;;;9.77;81.93;101095.91;5037256;28;20206;-78
2024/02/04 07:51:37;;;;;;;2.80;1.60;;;;;;;9.61;81.77;101086.44;5021412;28;20249;-78
2024/02/04 07:54:04;;;;;;;2.20;1.30;;;;;;;9.69;81.31;101101.19;5036883;28;20285;-78
2024/02/04 07:56:30;;;;;;;1.00;1.00;;;;;;;9.63;82.09;101083.00;5037959;28;20226;-79
2024/02/04 07:58:56;;;;;;;2.27;1.40;;;;;;;9.75;82.08;101082.03;5037571;28;20397;-78
2024/02/04 08:01:23;;;;;;;3.00;1.95;;;;;;;9.70;81.74;101086.41;5036130;28;20445;-78
2024/02/04 08:03:50;;;;;;;2.60;1.40;;;;;;;9.77;81.08;101100.28;5036418;28;20244;-78
2024/02/04 08:06:17;;;;;;;1.70;1.07;;;;;;;9.79;80.73;101096.81;5036955;28;20259;-78
2024/02/04 08:08:47;;;;;;;3.08;2.00;;;;;;;9.82;80.69;101115.03;5034795;28;20433;-78
2024/02/04 08:11:17;;;;;;;1.70;1.20;;;;;;;9.87;80.23;101120.22;5035790;28;20680;-77
2024/02/04 08:13:43;;;;;;;2.17;1.10;;;;;;;9.70;80.42;101129.00;5044302;28;20229;-78
2024/02/04 08:16:09;;;;;;;1.47;1.00;;;;;;;9.63;80.30;101116.88;5019410;28;20924;-76
2024/02/04 08:18:36;;;;;;;2.23;1.40;;;;;;;9.73;79.69;101115.94;5035326;28;20241;-77
2024/02/04 08:21:02;;;;;;;2.03;1.07;;;;;;;9.57;80.02;101129.91;5025131;28;20211;-77
2024/02/04 08:23:28;;;;;;;1.83;0.83;;;;;;;9.63;80.30;101132.50;5015666;28;20261;-77
2024/02/04 08:25:57;;;;;;;2.53;1.10;;;;;;;9.44;78.82;101164.72;5015518;28;20655;-77
2024/02/04 08:28:25;;;;;;;2.10;0.93;;;;;;;9.60;78.23;101178.56;5031663;28;20209;-80
2024/02/04 08:30:51;;;;;;;1.60;0.80;;;;;;;9.59;78.79;101162.03;5045215;28;20202;-79
2024/02/04 08:33:18;;;;;;;2.67;1.17;;;;;;;9.63;78.19;101174.22;5031204;28;20203;-80
2024/02/04 08:35:45;;;;;;;2.50;1.13;;;;;;;9.84;77.34;101196.72;5037678;28;20218;-80
2024/02/04 08:38:11;;;;;;;4.23;1.10;;;;;;;9.70;77.37;101194.16;5038021;28;20194;-80
2024/02/04 08:40:37;;;;;;;2.47;1.20;;;;;;;9.72;77.29;101226.31;5038785;28;20261;-80
2024/02/04 08:43:05;;;;;;;3.07;1.10;;;;;;;9.74;77.28;101214.13;5037684;28;20271;-81
2024/02/04 08:45:31;;;;;;;3.87;1.20;;;;;;;9.50;77.73;101209.84;5037782;28;20261;-80
2024/02/04 08:47:58;;;;;;;3.53;1.00;;;;;;;9.55;77.90;101209.84;5035827;28;20677;-80
2024/02/04 08:50:24;;;;;;;2.00;1.00;;;;;;;9.65;78.92;101193.31;5028813;28;20232;-80
2024/02/04 08:52:50;;;;;;;1.33;0.97;;;;;;;9.25;78.91;101196.00;5037439;28;20209;-79
2024/02/04 08:55:17;;;;;;;2.47;1.30;;;;;;;9.33;78.66;101181.22;5036568;28;20233;-80
2024/02/04 08:57:44;;;;;;;2.10;1.10;;;;;;;9.51;78.58;101185.53;5037355;28;20284;-79
2024/02/04 09:00:14;;;;;;;3.70;1.30;;;;;;;9.43;78.05;101196.84;5037708;28;20203;-80
2024/02/04 09:02:41;;;;;;;2.13;1.10;;;;;;;9.47;78.51;101175.09;5037282;28;20297;-79
2024/02/04 09:05:08;;;;;;;24.17;13.03;;;;;;;9.38;78.68;101196.00;5036819;28;20226;-78
2024/02/04 09:07:35;;;;;;;4.50;1.80;;;;;;;9.30;78.13;101182.97;5037706;28;20225;-79
2024/02/04 09:10:01;;;;;;;3.33;1.50;;;;;;;9.67;77.62;101194.19;5040471;28;20247;-81
2024/02/04 09:12:27;;;;;;;2.20;1.30;;;;;;;9.63;77.32;101204.59;5017280;28;20686;-78
2024/02/04 09:14:54;;;;;;;2.90;1.20;;;;;;;9.52;77.70;101218.53;5027745;28;20198;-79
2024/02/04 09:17:21;;;;;;;2.83;1.30;;;;;;;9.58;77.13;101225.47;5037403;28;20218;-78
2024/02/04 09:19:47;;;;;;;2.90;1.30;;;;;;;9.65;77.13;101227.22;5034869;28;20229;-79
2024/02/04 09:22:14;;;;;;;2.33;1.57;;;;;;;9.43;76.17;101265.44;5036697;28;20202;-80
2024/02/04 09:24:40;;;;;;;3.13;1.30;;;;;;;9.65;76.38;101271.53;5037905;28;20210;-79
2024/02/04 09:27:06;;;;;;;3.97;1.60;;;;;;;9.61;76.43;101268.91;5037681;28;20375;-81
2024/02/04 09:29:33;;;;;;;3.30;1.67;;;;;;;9.74;75.31;101283.66;5038008;28;20228;-80
2024/02/04 09:31:59;;;;;;;5.53;1.70;;;;;;;9.56;75.16;101304.56;5036782;28;20206;-80
2024/02/04 09:34:27;;;;;;;3.83;1.50;;;;;;;9.52;75.22;101307.16;5037635;28;20213;-79
2024/02/04 09:36:53;;;;;;;2.60;1.20;;;;;;;9.39;75.87;101300.19;5037500;28;20217;-81
2024/02/04 09:39:19;;;;;;;2.67;1.27;;;;;;;9.54;75.51;101274.13;5041530;28;20215;-80
2024/02/04 09:41:46;;;;;;;1.73;0.93;;;;;;;9.52;75.17;101301.94;5017048;28;20203;-78
2024/02/04 09:44:12;;;;;;;4.63;1.40;;;;;;;9.73;75.64;101285.41;5016418;28;20202;-79
2024/02/04 09:46:39;;;;;;;2.83;1.33;;;;;;;9.64;75.80;101292.38;5015350;28;20306;-78
2024/02/04 09:49:06;;;;;;;4.57;1.40;;;;;;;9.57;76.23;101288.03;5027443;28;20639;-78
2024/02/04 09:51:34;;;;;;;2.93;2.00;;;;;;;9.65;76.30;101292.38;5035891;28;20209;-78
2024/02/04 09:54:06;;;;;;;4.63;1.50;;;;;;;9.60;75.48;101272.41;5035612;28;20733;-78
2024/02/04 09:56:33;;;;;;;2.90;1.47;;;;;;;9.77;74.83;101298.44;5041636;28;20218;-78
2024/02/04 09:59:00;;;;;;;4.90;1.43;;;;;;;9.51;75.40;101291.50;5018606;28;20261;-78
2024/02/04 10:01:27;;;;;;;4.88;2.33;;;;;;;9.57;75.47;101303.66;5015746;28;20442;-78
2024/02/04 10:03:53;;;;;;;3.43;1.40;;;;;;;9.60;74.90;101298.47;5022892;28;20579;-78
2024/02/04 10:06:20;;;;;;;4.17;2.07;;;;;;;9.64;75.54;101292.38;5020541;28;20226;-79
2024/02/04 10:08:48;;;;;;;3.80;1.60;;;;;;;9.67;75.39;101305.38;5015927;28;20210;-78
2024/02/04 10:11:14;;;;;;;3.07;1.60;;;;;;;9.60;75.69;101309.75;5016322;28;20203;-78
2024/02/04 10:13:48;;;;;;;3.57;1.50;;;;;;;9.74;76.42;101283.66;5015138;28;20229;-79
2024/02/04 10:16:14;;;;;;;4.50;1.37;;;;;;;9.86;75.72;101283.63;5015442;28;20305;-78
2024/02/04 10:18:42;;;;;;;4.80;1.60;;;;;;;9.67;75.19;101282.81;5023089;28;20214;-78
2024/02/04 10:21:15;;;;;;;4.03;1.30;;;;;;;9.53;74.11;101316.72;5024803;28;20293;-78
2024/02/04 10:23:42;;;;;;;3.40;1.50;;;;;;;9.62;74.96;101322.78;5033781;28;20202;-78
2024/02/04 10:26:10;;;;;;;3.10;1.80;;;;;;;9.73;75.87;101297.56;5034076;28;20280;-80
2024/02/04 10:28:36;;;;;;;7.30;1.37;;;;;;;9.86;75.60;101304.50;5038055;28;20206;-78
2024/02/04 10:31:03;;;;;;;1.93;1.10;;;;;;;9.76;75.73;101287.13;5033324;28;20210;-78
2024/02/04 10:33:31;;;;;;;3.40;1.43;;;;;;;9.49;73.66;101321.91;5032128;28;20214;-77
2024/02/04 10:35:57;;;;;;;2.93;1.50;;;;;;;9.60;73.71;101337.56;5032368;28;20276;-78
2024/02/04 10:38:24;;;;;;;2.67;1.33;;;;;;;9.59;73.80;101343.63;5032918;28;20213;-79
2024/02/04 10:40:55;;;;;;;4.43;1.27;;;;;;;9.69;72.90;101369.72;5033467;28;20210;-78
2024/02/04 10:43:24;;;;;;;2.97;1.63;;;;;;;9.53;73.46;101370.56;5033685;28;20202;-77
2024/02/04 10:45:56;;;;;;;3.13;1.73;;;;;;;9.60;73.60;101361.88;5034492;28;20233;-78
2024/02/04 10:48:26;;;;;;;4.87;1.67;;;;;;;9.71;73.72;101349.72;5032804;28;20229;-79
2024/02/04 10:50:56;;;;;;;1.80;1.40;;;;;;;9.71;74.01;101346.22;5025427;28;20211;-78
2024/02/04 10:53:23;;;;;;;9.00;1.50;;;;;;;9.82;73.29;101346.25;5025340;28;20198;-77
2024/02/04 10:55:50;;;;;;;4.13;1.60;;;;;;;9.81;73.34;101344.47;5032670;28;20222;-78
2024/02/04 10:58:18;;;;;;;3.27;1.60;;;;;;;9.66;74.16;101330.59;5033953;28;20267;-77
2024/02/04 11:00:46;;;;;;;4.40;1.50;;;;;;;9.91;73.73;101309.69;5033730;28;20207;-78
2024/02/04 11:03:16;;;;;;;2.70;1.60;;;;;;;9.59;73.81;101323.63;5033001;28;20213;-78
2024/02/04 11:05:43;;;;;;;5.27;1.60;;;;;;;9.72;74.24;101322.78;5033121;28;20284;-78
2024/02/04 11:08:11;;;;;;;2.60;1.10;;;;;;;9.67;75.22;101288.03;5033262;28;20212;-78
2024/02/04 11:10:40;;;;;;;3.57;1.17;;;;;;;9.49;73.68;101312.38;5032078;28;20252;-77
2024/02/04 11:13:09;;;;;;;2.93;1.57;;;;;;;9.67;74.17;101305.38;5039218;28;20209;-78
2024/02/04 11:15:38;;;;;;;5.87;1.67;;;;;;;9.63;74.37;101308.88;5013818;28;20285;-78
2024/02/04 11:18:27;;;;;;;3.80;1.67;;;;;;;9.72;73.79;101296.69;5028985;28;20212;-78
2024/02/04 11:21:09;;;;;;;3.23;1.30;;;;;;;9.63;73.39;101307.16;5028530;28;20210;-78
2024/02/04 11:23:45;;;;;;;3.53;1.40;;;;;;;9.78;74.71;101285.41;5033188;28;20217;-78
2024/02/04 11:26:12;;;;;;;4.77;1.50;;;;;;;10.05;74.20;101266.22;5031771;28;20801;-78
2024/02/04 11:28:39;;;;;;;3.77;1.47;;;;;;;9.99;73.48;101262.72;5032703;28;20206;-78
2024/02/04 11:31:05;;;;;;;3.07;1.20;;;;;;;9.80;73.16;101272.38;5030904;28;20707;-76